Accueil
METAR-TAF:

METAR-TAF

Aéroports :

Aéroport de Saint-Yan

Saint-Yan, France

latitude: 46-24-45N, longitude: 004-00-48E, altitude: 244 m

Observation

Le bulletin a été fait il y a 33 minutes, à 21:30 UTC
Vent 1 kt de direction variable
Température 12°C
Humidité 88%
Pression 1013 hPa
Visibilité 10 km ou plus
pas de nuages en-dessous de 1500 mètres et pas de cumulonimbus.

METAR: LFLN 222130Z AUTO VRB01KT CAVOK 12/10 Q1013

Heure: 23:03 (22:03 UTC)

Prévision

Le bulletin a été fait il y a 5 heures et 3 minutes, à 17:00 UTC
Prévision valable du 22 à 18 UTC au 23 à 03 UTC
Vent 3 kt de direction variable
Visibilité 10 km ou plus
pas de nuages en-dessous de 1500 mètres et pas de cumulonimbus.
Temporairement
du 22 à 18 UTC au 22 à 24 UTC
pluie faible

TAF: LFLN 221700Z 2218/2303 VRB03KT CAVOK TEMPO 2218/2224 -RA

Observations et prévisions météorologiques de plus de 4000 aéroports (messages METAR et TAF).

Les stations disponibles sont représentées par des disques jaunes et rouges sur la carte.

Passer la souris dessus pour voir le nom de la station.

Cliquer dessus pour voir les observations et prévisions météorologiques.

Pour changer de carte: cliquez sur les boutons verts avec une croix noire pour zoomer, sur le bouton vert avec un tiret pour effectuer un zoom arrière, ou sur les flèches vertes pour les cartes adjacentes.


METAR-TAF: